createdAt,value
2023-02-14T00:00:28.912Z,102058.66
2023-02-14T00:02:57.069Z,102056.06
2023-02-14T00:05:23.742Z,102061.63
2023-02-14T00:07:50.153Z,102054.84
2023-02-14T00:10:17.269Z,102050.19
2023-02-14T00:12:43.662Z,102046.16
2023-02-14T00:15:22.933Z,102046.31
2023-02-14T00:17:54.668Z,102043.13
2023-02-14T00:20:22.765Z,102047.38
2023-02-14T00:22:49.322Z,102046.31
2023-02-14T00:25:17.004Z,102045.59
2023-02-14T00:27:43.457Z,102049.00
2023-02-14T00:30:12.890Z,102039.66
2023-02-14T00:32:40.256Z,102046.78
2023-02-14T00:35:08.230Z,102041.13
2023-02-14T00:37:34.735Z,102037.69
2023-02-14T00:40:01.097Z,102052.66
2023-02-14T00:42:27.534Z,102054.53
2023-02-14T00:44:53.926Z,102048.53
2023-02-14T00:47:20.297Z,102049.56
2023-02-14T00:49:46.651Z,102048.69
2023-02-14T00:52:12.997Z,102038.09
2023-02-14T00:54:39.391Z,102042.13
2023-02-14T00:57:05.856Z,102036.00
2023-02-14T00:59:32.211Z,102028.19
2023-02-14T01:01:58.589Z,102028.03
2023-02-14T01:04:24.998Z,102026.75
2023-02-14T01:06:51.356Z,102032.16
2023-02-14T01:09:17.746Z,102030.44
2023-02-14T01:11:44.239Z,102030.53
2023-02-14T01:14:10.576Z,102038.72
2023-02-14T01:16:38.810Z,102033.31
2023-02-14T01:19:05.326Z,102028.09
2023-02-14T01:21:33.819Z,102021.91
2023-02-14T01:24:02.979Z,102026.47
2023-02-14T01:26:29.607Z,102022.00
2023-02-14T01:28:56.584Z,102021.19
2023-02-14T01:31:26.093Z,102018.56
2023-02-14T01:33:53.374Z,102021.19
2023-02-14T01:36:28.381Z,102015.94
2023-02-14T01:38:58.407Z,102007.13
2023-02-14T01:41:26.395Z,102019.34
2023-02-14T01:43:56.181Z,102006.97
2023-02-14T01:46:23.292Z,102010.53
2023-02-14T01:48:50.820Z,102002.00
2023-02-14T01:51:19.899Z,102006.34
2023-02-14T01:53:47.170Z,101998.28
2023-02-14T01:56:20.012Z,102003.41
2023-02-14T01:58:50.360Z,102014.25
2023-02-14T02:01:18.369Z,102019.34
2023-02-14T02:03:50.427Z,102007.28
2023-02-14T02:06:39.395Z,102012.25
2023-02-14T02:09:32.403Z,102006.03
2023-02-14T02:11:59.439Z,102015.94
2023-02-14T02:14:25.878Z,102005.56
2023-02-14T02:17:10.137Z,102001.88
2023-02-14T02:20:01.351Z,101999.22
2023-02-14T02:22:58.750Z,102010.81
2023-02-14T02:26:01.058Z,101993.88
2023-02-14T02:29:04.438Z,102003.72
2023-02-14T02:32:06.052Z,101999.69
2023-02-14T02:34:57.733Z,101997.28
2023-02-14T02:37:51.031Z,101995.56
2023-02-14T02:40:48.987Z,101994.66
2023-02-14T02:43:53.873Z,101991.78
2023-02-14T02:46:49.767Z,101989.59
2023-02-14T02:49:39.053Z,101998.28
2023-02-14T02:52:32.241Z,101993.19
2023-02-14T02:55:06.047Z,101991.03
2023-02-14T02:57:37.673Z,101990.88
2023-02-14T03:00:07.396Z,101983.03
2023-02-14T03:03:00.616Z,101975.22
2023-02-14T03:05:28.854Z,101980.00
2023-02-14T03:07:55.203Z,101975.97
2023-02-14T03:10:24.751Z,101982.81
2023-02-14T03:13:10.236Z,101982.81
2023-02-14T03:16:12.374Z,101982.66
2023-02-14T03:19:09.420Z,101987.44
2023-02-14T03:22:00.746Z,101981.53
2023-02-14T03:24:46.020Z,101989.91
2023-02-14T03:27:25.449Z,101987.75
2023-02-14T03:30:14.448Z,101987.75
2023-02-14T03:32:51.598Z,101991.00
2023-02-14T03:35:32.055Z,101982.31
2023-02-14T03:38:08.282Z,101985.88
2023-02-14T03:40:40.838Z,101980.47
2023-02-14T03:43:12.938Z,101982.81
2023-02-14T03:45:52.910Z,101975.97
2023-02-14T03:48:23.998Z,101980.81
2023-02-14T03:50:52.279Z,101974.66
2023-02-14T03:53:24.676Z,101974.50
2023-02-14T03:56:01.437Z,101976.69
2023-02-14T03:58:37.446Z,101978.78
2023-02-14T04:01:11.597Z,101976.22
2023-02-14T04:03:41.006Z,101978.78
2023-02-14T04:06:08.341Z,101978.16
2023-02-14T04:08:35.077Z,101979.06
2023-02-14T04:11:04.677Z,101985.28
2023-02-14T04:13:31.338Z,101996.50
2023-02-14T04:15:57.790Z,101994.81
2023-02-14T04:18:42.934Z,101989.59
2023-02-14T04:21:09.347Z,101983.59
2023-02-14T04:23:35.695Z,101981.88
2023-02-14T04:26:03.725Z,101979.22
2023-02-14T04:28:30.768Z,101977.53
2023-02-14T04:31:00.817Z,101978.06
2023-02-14T04:33:27.530Z,101975.69
2023-02-14T04:35:53.922Z,101973.81
2023-02-14T04:38:20.463Z,101966.53
2023-02-14T04:40:49.803Z,101970.28
2023-02-14T04:43:16.228Z,101970.34
2023-02-14T04:45:42.578Z,101967.16
2023-02-14T04:48:08.969Z,101972.41
2023-02-14T04:50:35.374Z,101965.44
2023-02-14T04:53:01.718Z,101960.09
2023-02-14T04:55:28.195Z,101954.78
2023-02-14T04:57:54.546Z,101960.75
2023-02-14T05:00:21.133Z,101951.91
2023-02-14T05:02:47.583Z,101953.06
2023-02-14T05:05:13.943Z,101958.00
2023-02-14T05:07:40.362Z,101956.16
2023-02-14T05:10:07.178Z,101954.47
2023-02-14T05:12:33.632Z,101954.78
2023-02-14T05:15:00.376Z,101955.78
2023-02-14T05:17:26.760Z,101956.84
2023-02-14T05:19:53.172Z,101959.59
2023-02-14T05:22:19.509Z,101955.69
2023-02-14T05:24:45.874Z,101953.06
2023-02-14T05:27:12.251Z,101945.78
2023-02-14T05:29:38.726Z,101951.38
2023-02-14T05:32:05.242Z,101947.88
2023-02-14T05:34:31.623Z,101953.44
2023-02-14T05:36:58.002Z,101944.09
2023-02-14T05:39:24.387Z,101956.00
2023-02-14T05:41:51.034Z,101948.91
2023-02-14T05:44:17.398Z,101944.84
2023-02-14T05:46:43.747Z,101947.47
2023-02-14T05:49:10.106Z,101947.47
2023-02-14T05:51:36.449Z,101951.38
2023-02-14T05:54:02.832Z,101949.22
2023-02-14T05:56:29.221Z,101945.00
2023-02-14T05:58:55.588Z,101942.53
2023-02-14T06:01:22.002Z,101941.00
2023-02-14T06:03:48.402Z,101951.06
2023-02-14T06:06:14.761Z,101939.81
2023-02-14T06:08:41.144Z,101945.94
2023-02-14T06:11:07.487Z,101943.78
2023-02-14T06:13:33.848Z,101948.41
2023-02-14T06:16:00.275Z,101956.16
2023-02-14T06:18:29.476Z,101948.19
2023-02-14T06:20:55.902Z,101942.38
2023-02-14T06:23:22.641Z,101949.56
2023-02-14T06:25:48.992Z,101944.25
2023-02-14T06:28:15.424Z,101952.91
2023-02-14T06:30:42.075Z,101949.63
2023-02-14T06:33:08.533Z,101946.25
2023-02-14T06:35:34.890Z,101952.91
2023-02-14T06:38:01.238Z,101962.88
2023-02-14T06:40:27.603Z,101956.94
2023-02-14T06:42:54.016Z,101962.34
2023-02-14T06:45:20.363Z,101964.88
2023-02-14T06:47:47.083Z,101965.88
2023-02-14T06:50:13.436Z,101969.31
2023-02-14T06:52:39.861Z,101971.31
2023-02-14T06:55:06.527Z,101965.72
2023-02-14T06:57:32.925Z,101965.72
2023-02-14T06:59:59.279Z,101971.16
2023-02-14T07:02:25.738Z,101967.91
2023-02-14T07:04:52.225Z,101969.47
2023-02-14T07:07:18.606Z,101959.78
2023-02-14T07:09:44.955Z,101964.38
2023-02-14T07:12:11.465Z,101965.72
2023-02-14T07:14:37.825Z,101960.63
2023-02-14T07:17:04.620Z,101960.47
2023-02-14T07:19:30.977Z,101952.50
2023-02-14T07:21:57.320Z,101952.56
2023-02-14T07:24:23.848Z,101953.50
2023-02-14T07:26:50.232Z,101958.78
2023-02-14T07:29:16.596Z,101959.59
2023-02-14T07:31:43.067Z,101956.94
2023-02-14T07:34:09.496Z,101956.25
2023-02-14T07:36:37.462Z,101962.03
2023-02-14T07:39:03.861Z,101955.22
2023-02-14T07:41:30.258Z,101956.44
2023-02-14T07:43:56.605Z,101952.13
2023-02-14T07:46:22.988Z,101954.34
2023-02-14T07:48:50.659Z,101946.25
2023-02-14T07:51:17.028Z,101950.72
2023-02-14T07:53:43.387Z,101951.22
2023-02-14T07:56:09.757Z,101947.94
2023-02-14T07:58:36.118Z,101952.44
2023-02-14T08:01:02.670Z,101951.22
2023-02-14T08:03:29.235Z,101949.94
2023-02-14T08:05:58.268Z,101955.84
2023-02-14T08:08:27.381Z,101951.38
2023-02-14T08:10:53.806Z,101953.75
2023-02-14T08:13:20.424Z,101952.56
2023-02-14T08:16:05.130Z,101948.25
2023-02-14T08:18:42.341Z,101950.88
2023-02-14T08:21:11.135Z,101951.38
2023-02-14T08:23:37.674Z,101956.16
2023-02-14T08:26:04.313Z,101952.00
2023-02-14T08:28:32.914Z,101955.16
2023-02-14T08:30:59.672Z,101964.69
2023-02-14T08:33:26.251Z,101967.34
2023-02-14T08:35:52.723Z,101969.81
2023-02-14T08:38:19.540Z,101969.03
2023-02-14T08:40:46.035Z,101958.50
2023-02-14T08:43:12.778Z,101956.34
2023-02-14T08:45:40.091Z,101960.28
2023-02-14T08:48:11.945Z,101961.03
2023-02-14T08:50:39.354Z,101954.75
2023-02-14T08:53:10.240Z,101954.75
2023-02-14T08:55:37.241Z,101968.72
2023-02-14T08:58:04.348Z,101956.59
2023-02-14T09:00:32.217Z,101950.00
2023-02-14T09:02:59.159Z,101963.13
2023-02-14T09:05:26.549Z,101952.59
2023-02-14T09:07:55.867Z,101958.19
2023-02-14T09:10:22.480Z,101958.56
2023-02-14T09:12:48.846Z,101963.44
2023-02-14T09:15:15.200Z,101969.50
2023-02-14T09:17:41.614Z,101968.56
2023-02-14T09:20:11.459Z,101961.97
2023-02-14T09:22:37.888Z,101971.81
2023-02-14T09:25:04.895Z,101978.00
2023-02-14T09:27:31.371Z,101970.53
2023-02-14T09:29:57.741Z,101963.59
2023-02-14T09:32:27.076Z,101970.25
2023-02-14T09:34:53.494Z,101968.66
2023-02-14T09:37:38.640Z,101973.03
2023-02-14T09:40:05.764Z,101968.56
2023-02-14T09:43:13.704Z,101976.47
2023-02-14T09:45:40.339Z,101977.72
2023-02-14T09:48:17.235Z,101977.09
2023-02-14T09:50:54.900Z,101976.16
2023-02-14T09:53:46.458Z,101973.53
2023-02-14T09:56:37.306Z,101972.72
2023-02-14T09:59:39.282Z,101975.34
2023-02-14T10:02:43.145Z,101968.84
2023-02-14T10:05:15.488Z,101978.84
2023-02-14T10:08:05.142Z,101968.69
2023-02-14T10:10:43.073Z,101970.66
2023-02-14T10:13:40.637Z,101964.66
2023-02-14T10:16:36.500Z,101969.16
2023-02-14T10:19:40.483Z,101963.47
2023-02-14T10:22:15.125Z,101955.47
2023-02-14T10:24:55.087Z,101960.91
2023-02-14T10:27:32.480Z,101958.34
2023-02-14T10:29:59.104Z,101963.63
2023-02-14T10:32:37.797Z,101960.91
2023-02-14T10:35:15.935Z,101955.91
2023-02-14T10:38:17.421Z,101956.56
2023-02-14T10:41:01.871Z,101960.91
2023-02-14T10:43:41.489Z,101960.91
2023-02-14T10:46:19.379Z,101959.69
2023-02-14T10:49:08.175Z,101953.63
2023-02-14T10:51:51.144Z,101952.56
2023-02-14T10:54:28.898Z,101954.25
2023-02-14T10:57:18.499Z,101956.34
2023-02-14T10:59:49.350Z,101953.91
2023-02-14T11:02:18.194Z,101952.38
2023-02-14T11:04:47.167Z,101958.44
2023-02-14T11:07:15.484Z,101952.38
2023-02-14T11:09:41.920Z,101955.81
2023-02-14T11:12:09.862Z,101949.59
2023-02-14T11:14:38.121Z,101944.38
2023-02-14T11:17:35.862Z,101938.78
2023-02-14T11:20:20.363Z,101942.88
2023-02-14T11:22:46.758Z,101942.81
2023-02-14T11:25:35.557Z,101939.50
2023-02-14T11:28:07.874Z,101929.97
2023-02-14T11:30:37.011Z,101936.69
2023-02-14T11:33:04.726Z,101937.44
2023-02-14T11:35:37.015Z,101926.91
2023-02-14T11:38:30.491Z,101927.97
2023-02-14T11:40:59.150Z,101925.97
2023-02-14T11:43:40.247Z,101924.56
2023-02-14T11:46:22.793Z,101918.44
2023-02-14T11:48:57.652Z,101915.56
2023-02-14T11:51:34.933Z,101921.00
2023-02-14T11:54:05.371Z,101920.66
2023-02-14T11:56:49.587Z,101918.94
2023-02-14T11:59:27.983Z,101913.09
2023-02-14T12:01:55.738Z,101905.59
2023-02-14T12:04:32.787Z,101902.44
2023-02-14T12:07:17.943Z,101900.75
2023-02-14T12:09:46.278Z,101909.34
2023-02-14T12:12:23.543Z,101898.69
2023-02-14T12:14:50.196Z,101894.63
2023-02-14T12:17:30.301Z,101893.84
2023-02-14T12:20:11.923Z,101884.75
2023-02-14T12:23:03.402Z,101880.34
2023-02-14T12:25:45.286Z,101880.16
2023-02-14T12:28:17.874Z,101881.34
2023-02-14T12:30:44.300Z,101874.22
2023-02-14T12:33:21.840Z,101874.53
2023-02-14T12:36:03.532Z,101872.13
2023-02-14T12:38:46.036Z,101863.09
2023-02-14T12:41:50.147Z,101867.81
2023-02-14T12:44:25.931Z,101864.56
2023-02-14T12:46:58.741Z,101860.06
2023-02-14T12:49:30.937Z,101851.22
2023-02-14T12:52:12.942Z,101842.94
2023-02-14T12:54:39.316Z,101847.16
2023-02-14T12:57:44.321Z,101840.69
2023-02-14T13:00:14.847Z,101838.13
2023-02-14T13:03:15.112Z,101834.38
2023-02-14T13:06:17.523Z,101838.31
2023-02-14T13:09:21.336Z,101834.19
2023-02-14T13:12:17.201Z,101831.19
2023-02-14T13:14:58.145Z,101819.56
2023-02-14T13:17:38.498Z,101825.94
2023-02-14T13:20:30.971Z,101820.31
2023-02-14T13:23:02.995Z,101825.69
2023-02-14T13:25:34.520Z,101818.38
2023-02-14T13:28:04.653Z,101819.16
2023-02-14T13:30:37.133Z,101825.38
2023-02-14T13:33:09.472Z,101817.72
2023-02-14T13:35:36.144Z,101815.00
2023-02-14T13:38:06.863Z,101815.31
2023-02-14T13:40:35.474Z,101805.97
2023-02-14T13:43:02.637Z,101810.06
2023-02-14T13:45:37.824Z,101806.66
2023-02-14T13:48:14.457Z,101812.09
2023-02-14T13:50:59.660Z,101799.00
2023-02-14T13:53:40.211Z,101800.50
2023-02-14T13:56:12.725Z,101800.25
2023-02-14T13:58:52.913Z,101800.16
2023-02-14T14:01:28.451Z,101798.28
2023-02-14T14:04:01.775Z,101794.88
2023-02-14T14:06:28.445Z,101798.38
2023-02-14T14:08:57.085Z,101795.66
2023-02-14T14:11:23.386Z,101799.13
2023-02-14T14:14:01.600Z,101791.16
2023-02-14T14:16:33.284Z,101792.00
2023-02-14T14:19:21.987Z,101784.81
2023-02-14T14:22:10.088Z,101784.56
2023-02-14T14:24:38.045Z,101784.47
2023-02-14T14:27:06.947Z,101772.50
2023-02-14T14:29:53.930Z,101774.59
2023-02-14T14:32:30.315Z,101771.56
2023-02-14T14:35:18.711Z,101771.38
2023-02-14T14:37:51.699Z,101771.56
2023-02-14T14:40:32.044Z,101769.09
2023-02-14T14:43:22.779Z,101765.69
2023-02-14T14:45:51.482Z,101761.72
2023-02-14T14:48:43.485Z,101768.69
2023-02-14T14:51:36.846Z,101760.69
2023-02-14T14:54:13.460Z,101757.09
2023-02-14T14:56:50.889Z,101749.25
2023-02-14T14:59:22.408Z,101740.91
2023-02-14T15:01:54.215Z,101738.38
2023-02-14T15:04:32.396Z,101744.00
2023-02-14T15:07:18.669Z,101735.06
2023-02-14T15:09:45.379Z,101731.56
2023-02-14T15:12:35.714Z,101727.97
2023-02-14T15:15:02.267Z,101720.84
2023-02-14T15:17:31.656Z,101730.53
2023-02-14T15:20:07.048Z,101728.50
2023-02-14T15:22:41.789Z,101717.47
2023-02-14T15:25:20.596Z,101715.59
2023-02-14T15:27:47.832Z,101716.84
2023-02-14T15:30:37.078Z,101709.59
2023-02-14T15:33:05.956Z,101708.28
2023-02-14T15:35:34.790Z,101708.94
2023-02-14T15:38:04.542Z,101709.97
2023-02-14T15:40:33.941Z,101709.69
2023-02-14T15:43:41.505Z,101704.09
2023-02-14T15:46:29.625Z,101705.97
2023-02-14T15:49:00.811Z,101712.06
2023-02-14T15:51:30.728Z,101697.22
2023-02-14T15:54:00.378Z,101701.50
2023-02-14T15:56:43.162Z,101701.19
2023-02-14T15:59:17.502Z,101694.06
2023-02-14T16:01:52.537Z,101699.69
2023-02-14T16:04:27.084Z,101701.72
2023-02-14T16:07:24.361Z,101698.59
2023-02-14T16:10:11.818Z,101704.97
2023-02-14T16:12:39.830Z,101703.78
2023-02-14T16:15:15.147Z,101704.63
2023-02-14T16:17:43.912Z,101703.59
2023-02-14T16:20:38.940Z,101697.34
2023-02-14T16:23:20.456Z,101699.72
2023-02-14T16:25:47.884Z,101703.81
2023-02-14T16:28:14.790Z,101706.16
2023-02-14T16:30:42.548Z,101704.13
2023-02-14T16:33:36.853Z,101696.72
2023-02-14T16:36:14.056Z,101703.09
2023-02-14T16:38:43.864Z,101701.22
2023-02-14T16:41:19.181Z,101703.03
2023-02-14T16:43:46.613Z,101700.94
2023-02-14T16:46:14.664Z,101705.59
2023-02-14T16:48:42.401Z,101699.31
2023-02-14T16:51:14.113Z,101697.91
2023-02-14T16:53:42.593Z,101701.81
2023-02-14T16:56:17.720Z,101695.78
2023-02-14T16:58:44.531Z,101694.41
2023-02-14T17:01:10.971Z,101691.84
2023-02-14T17:03:39.596Z,101698.28
2023-02-14T17:06:08.075Z,101687.31
2023-02-14T17:08:34.846Z,101694.44
2023-02-14T17:11:02.101Z,101691.34
2023-02-14T17:13:32.873Z,101689.66
2023-02-14T17:16:01.369Z,101689.81
2023-02-14T17:18:30.369Z,101691.66
2023-02-14T17:20:59.198Z,101682.28
2023-02-14T17:23:26.135Z,101686.84
2023-02-14T17:25:52.528Z,101681.66
2023-02-14T17:28:18.854Z,101682.59
2023-02-14T17:30:45.224Z,101680.81
2023-02-14T17:33:11.572Z,101677.44
2023-02-14T17:35:38.094Z,101678.66
2023-02-14T17:38:04.494Z,101671.88
2023-02-14T17:40:31.901Z,101671.72
2023-02-14T17:42:58.450Z,101679.97
2023-02-14T17:45:24.922Z,101672.94
2023-02-14T17:47:51.293Z,101673.09
2023-02-14T17:50:18.123Z,101672.63
2023-02-14T17:52:44.990Z,101673.47
2023-02-14T17:55:12.127Z,101673.84
2023-02-14T17:57:40.848Z,101669.84
2023-02-14T18:00:11.614Z,101665.34
2023-02-14T18:02:38.538Z,101664.72
2023-02-14T18:05:07.229Z,101667.72
2023-02-14T18:07:33.785Z,101659.06
2023-02-14T18:10:00.178Z,101669.84
2023-02-14T18:12:26.622Z,101662.91
2023-02-14T18:14:55.081Z,101665.91
2023-02-14T18:17:21.503Z,101669.16
2023-02-14T18:19:47.930Z,101657.41
2023-02-14T18:22:14.711Z,101661.94
2023-02-14T18:24:41.593Z,101657.97
2023-02-14T18:27:07.956Z,101659.53
2023-02-14T18:29:36.183Z,101662.47
2023-02-14T18:32:03.800Z,101663.78
2023-02-14T18:34:30.260Z,101658.84
2023-02-14T18:36:57.174Z,101656.06
2023-02-14T18:39:23.649Z,101655.31
2023-02-14T18:41:50.174Z,101648.19
2023-02-14T18:44:16.581Z,101654.66
2023-02-14T18:46:42.955Z,101641.69
2023-02-14T18:49:10.274Z,101646.94
2023-02-14T18:51:39.299Z,101643.53
2023-02-14T18:54:06.490Z,101632.88
2023-02-14T18:56:35.678Z,101641.13
2023-02-14T18:59:04.838Z,101642.53
2023-02-14T19:01:36.716Z,101631.41
2023-02-14T19:04:06.755Z,101628.78
2023-02-14T19:06:34.032Z,101627.66
2023-02-14T19:09:01.747Z,101628.78
2023-02-14T19:11:31.484Z,101612.19
2023-02-14T19:13:59.297Z,101620.53
2023-02-14T19:16:28.520Z,101620.03
2023-02-14T19:18:55.414Z,101622.50
2023-02-14T19:21:24.579Z,101616.69
2023-02-14T19:23:53.021Z,101620.69
2023-02-14T19:26:22.016Z,101619.00
2023-02-14T19:28:50.485Z,101616.22
2023-02-14T19:31:16.940Z,101616.44
2023-02-14T19:33:44.952Z,101617.50
2023-02-14T19:36:13.305Z,101611.41
2023-02-14T19:38:41.495Z,101609.69
2023-02-14T19:41:16.654Z,101610.81
2023-02-14T19:43:44.250Z,101611.94
2023-02-14T19:46:10.613Z,101613.94
2023-02-14T19:48:37.011Z,101609.44
2023-02-14T19:51:03.604Z,101611.31
2023-02-14T19:53:30.314Z,101610.75
2023-02-14T19:55:56.674Z,101608.47
2023-02-14T19:58:25.981Z,101615.56
2023-02-14T20:00:59.267Z,101611.03
2023-02-14T20:03:27.872Z,101610.50
2023-02-14T20:05:54.234Z,101605.50
2023-02-14T20:08:21.795Z,101607.31
2023-02-14T20:10:48.142Z,101603.84
2023-02-14T20:13:14.536Z,101606.34
2023-02-14T20:15:40.919Z,101599.59
2023-02-14T20:18:07.599Z,101601.22
2023-02-14T20:20:53.913Z,101596.13
2023-02-14T20:23:20.245Z,101589.56
2023-02-14T20:25:46.574Z,101592.97
2023-02-14T20:28:12.925Z,101592.97
2023-02-14T20:30:39.649Z,101589.72
2023-02-14T20:33:06.494Z,101585.53
2023-02-14T20:35:38.017Z,101593.13
2023-02-14T20:38:07.455Z,101587.59
2023-02-14T20:40:43.436Z,101589.97
2023-02-14T20:43:09.700Z,101591.66
2023-02-14T20:45:36.029Z,101591.41
2023-02-14T20:48:04.182Z,101579.16
2023-02-14T20:50:31.480Z,101579.09
2023-02-14T20:52:58.167Z,101579.50
2023-02-14T20:55:27.018Z,101570.00
2023-02-14T20:57:53.774Z,101574.38
2023-02-14T21:00:20.263Z,101569.41
2023-02-14T21:02:46.636Z,101571.09
2023-02-14T21:05:18.270Z,101572.03
2023-02-14T21:07:44.636Z,101574.56
2023-02-14T21:10:11.071Z,101574.25
2023-02-14T21:12:38.502Z,101575.09
2023-02-14T21:15:06.882Z,101577.13
2023-02-14T21:17:33.862Z,101572.16
2023-02-14T21:20:00.214Z,101570.97
2023-02-14T21:22:26.566Z,101577.28
2023-02-14T21:24:52.915Z,101567.91
2023-02-14T21:27:19.297Z,101569.81
2023-02-14T21:29:45.637Z,101569.81
2023-02-14T21:32:12.106Z,101566.41
2023-02-14T21:34:38.554Z,101569.09
2023-02-14T21:37:04.946Z,101561.13
2023-02-14T21:39:31.378Z,101556.78
2023-02-14T21:41:57.850Z,101559.88
2023-02-14T21:44:42.621Z,101556.47
2023-02-14T21:47:09.022Z,101549.66
2023-02-14T21:49:53.770Z,101552.28
2023-02-14T21:52:20.182Z,101542.69
2023-02-14T21:54:47.009Z,101538.56
2023-02-14T21:57:13.378Z,101540.31
2023-02-14T21:59:40.290Z,101537.19
2023-02-14T22:02:07.162Z,101538.44
2023-02-14T22:04:35.373Z,101534.94
2023-02-14T22:07:01.776Z,101534.09
2023-02-14T22:09:28.157Z,101527.25
2023-02-14T22:11:54.572Z,101527.38
2023-02-14T22:14:20.930Z,101523.25
2023-02-14T22:16:47.278Z,101520.84
2023-02-14T22:19:15.452Z,101524.25
2023-02-14T22:21:42.701Z,101520.84
2023-02-14T22:24:09.044Z,101521.69
2023-02-14T22:26:40.800Z,101520.72
2023-02-14T22:29:09.720Z,101512.22
2023-02-14T22:31:38.396Z,101515.41
2023-02-14T22:34:06.345Z,101516.38
2023-02-14T22:36:32.752Z,101518.41
2023-02-14T22:39:02.870Z,101517.56
2023-02-14T22:41:29.580Z,101522.94
2023-02-14T22:43:57.310Z,101523.78
2023-02-14T22:46:27.620Z,101524.75
2023-02-14T22:48:55.043Z,101516.16
2023-02-14T22:51:38.683Z,101515.13
2023-02-14T22:54:07.830Z,101516.06
2023-02-14T22:56:38.774Z,101512.59
2023-02-14T22:59:08.265Z,101509.31
2023-02-14T23:01:35.706Z,101504.09
2023-02-14T23:04:03.629Z,101510.13
2023-02-14T23:06:32.400Z,101507.41
2023-02-14T23:09:00.535Z,101505.13
2023-02-14T23:11:29.733Z,101505.81
2023-02-14T23:14:14.904Z,101498.84
2023-02-14T23:17:00.695Z,101500.66
2023-02-14T23:19:49.135Z,101504.94
2023-02-14T23:22:20.349Z,101498.97
2023-02-14T23:24:48.135Z,101504.09
2023-02-14T23:27:16.574Z,101499.06
2023-02-14T23:29:42.936Z,101506.97
2023-02-14T23:32:09.709Z,101492.31
2023-02-14T23:34:39.872Z,101495.56
2023-02-14T23:37:07.556Z,101490.47
2023-02-14T23:39:36.549Z,101484.38
2023-02-14T23:42:04.421Z,101487.25
2023-02-14T23:44:31.040Z,101483.53
2023-02-14T23:46:59.238Z,101487.34
2023-02-14T23:49:26.298Z,101478.44
2023-02-14T23:51:55.064Z,101470.53
2023-02-14T23:54:23.072Z,101469.66
2023-02-14T23:56:50.963Z,101476.06
2023-02-14T23:59:17.493Z,101482.22
